Startpagina
METAR-TAF:

METAR-TAF

Vliegvelden :

Büchel, Duitsland

breedte: 50-10N, lengte: 007-04E, hoogte: 478 m

Actueel weer

Dit bericht is 54 minuten geleden gemaakt, om 05:20 UTC
Wind 2 kt uit het westen
Temperatuur 14°C
Vochtigheid 88%
Druk 1019 hPa
Zicht 10 km of meer
Weinig wolken op 3000 ft

METAR: ETSB 160520Z 27002KT 9999 FEW030 14/12 Q1019 BLU+

Tijdstip: 08:14 (06:14 UTC)

Verwachting

Dit bericht is 1 uur en het 52 minuten geleden gemaakt, om 04:22 UTC
Verwachting geldig van 16 om 05 UTC tot 16 om 14 UTC
Wind 5 kt uit het zuidwesten
Zicht 10 km of meer
Verspreide wolken op 25000 ft

TAF: ETSB 160422Z 1605/1614 22005KT 9999 NSW SCT250 BY ETGL

Waarnemingen en weersverwachtingen van meer dan 4000 vliegvelden (METAR en TAF).

De beschikbare stations zijn de gele en rode punten op de kaart.

Ga met uw muis naar het station om de naam te zien.

Klik dan om waarnemingen en weersverwachtingen te zien.

kaart wijzigen: klik op de groene knoppen met een zwart kruis om in te zoomen, op de groene knop met een streepje om uit te zoomen of op de groene pijlen voor aangrenzende kaarten.


METAR-TAF: